createdAt,value
2019-02-18T00:01:50.969Z,119.70
2019-02-18T00:04:21.678Z,117.10
2019-02-18T00:06:52.258Z,118.43
2019-02-18T00:09:22.795Z,117.83
2019-02-18T00:11:53.346Z,118.33
2019-02-18T00:14:23.889Z,119.63
2019-02-18T00:16:54.373Z,118.47
2019-02-18T00:19:24.963Z,117.17
2019-02-18T00:21:55.509Z,119.00
2019-02-18T00:24:26.085Z,118.10
2019-02-18T00:26:56.576Z,117.70
2019-02-18T00:29:27.131Z,120.10
2019-02-18T00:31:57.697Z,119.53
2019-02-18T00:34:28.287Z,116.77
2019-02-18T00:36:58.899Z,118.47
2019-02-18T00:39:29.384Z,117.97
2019-02-18T00:41:59.858Z,117.73
2019-02-18T00:44:30.391Z,116.93
2019-02-18T00:47:00.924Z,114.23
2019-02-18T00:49:31.517Z,116.47
2019-02-18T00:52:02.165Z,116.40
2019-02-18T00:54:32.772Z,119.43
2019-02-18T00:57:03.252Z,114.87
2019-02-18T00:59:33.849Z,114.97
2019-02-18T01:02:04.319Z,115.03
2019-02-18T01:04:34.923Z,118.93
2019-02-18T01:07:05.508Z,115.77
2019-02-18T01:09:35.985Z,116.90
2019-02-18T01:12:06.486Z,116.60
2019-02-18T01:14:37.006Z,116.73
2019-02-18T01:17:07.568Z,116.77
2019-02-18T01:19:38.097Z,117.50
2019-02-18T01:22:08.667Z,118.23
2019-02-18T01:24:39.585Z,119.20
2019-02-18T01:27:10.159Z,117.10
2019-02-18T01:29:40.989Z,117.87
2019-02-18T01:32:13.438Z,117.40
2019-02-18T01:34:44.112Z,116.73
2019-02-18T01:37:14.689Z,116.70
2019-02-18T01:39:46.759Z,119.23
2019-02-18T01:42:17.252Z,117.27
2019-02-18T01:44:47.672Z,116.30
2019-02-18T01:47:18.399Z,117.93
2019-02-18T01:49:48.800Z,117.10
2019-02-18T01:52:20.298Z,117.30
2019-02-18T01:54:50.705Z,118.17
2019-02-18T01:57:21.235Z,113.90
2019-02-18T01:59:51.866Z,116.40
2019-02-18T02:02:22.725Z,116.73
2019-02-18T02:04:53.625Z,116.57
2019-02-18T02:07:24.401Z,117.50
2019-02-18T02:09:55.047Z,116.87
2019-02-18T02:12:25.693Z,115.83
2019-02-18T02:14:56.204Z,116.60
2019-02-18T02:17:26.724Z,118.50
2019-02-18T02:19:57.179Z,118.37
2019-02-18T02:22:27.700Z,116.27
2019-02-18T02:24:58.139Z,117.20
2019-02-18T02:27:28.548Z,117.03
2019-02-18T02:29:59.265Z,116.67
2019-02-18T02:32:29.782Z,116.10
2019-02-18T02:35:00.424Z,115.73
2019-02-18T02:37:30.865Z,117.40
2019-02-18T02:40:01.408Z,119.20
2019-02-18T02:42:33.193Z,116.17
2019-02-18T02:45:03.661Z,115.13
2019-02-18T02:47:34.147Z,116.47
2019-02-18T02:50:04.886Z,115.83
2019-02-18T02:52:35.396Z,117.77
2019-02-18T02:55:06.138Z,114.47
2019-02-18T02:57:36.578Z,115.87
2019-02-18T03:00:08.709Z,118.90
2019-02-18T03:02:39.214Z,116.07
2019-02-18T03:05:10.120Z,116.60
2019-02-18T03:07:40.525Z,117.50
2019-02-18T03:10:11.141Z,116.83
2019-02-18T03:12:41.746Z,115.17
2019-02-18T03:15:12.336Z,118.67
2019-02-18T03:17:42.820Z,116.37
2019-02-18T03:20:13.470Z,116.27
2019-02-18T03:22:43.946Z,114.00
2019-02-18T03:25:22.037Z,116.33
2019-02-18T03:27:59.259Z,115.23
2019-02-18T03:30:44.786Z,112.60
2019-02-18T03:33:17.706Z,115.87
2019-02-18T03:35:48.243Z,112.73
2019-02-18T03:38:18.869Z,114.50
2019-02-18T03:40:49.244Z,114.40
2019-02-18T03:43:20.199Z,114.93
2019-02-18T03:45:50.646Z,113.83
2019-02-18T03:48:21.125Z,115.13
2019-02-18T03:50:53.369Z,113.63
2019-02-18T03:53:23.908Z,114.03
2019-02-18T03:55:55.662Z,115.43
2019-02-18T03:58:26.213Z,114.83
2019-02-18T04:00:56.686Z,114.07
2019-02-18T04:03:27.134Z,116.03
2019-02-18T04:05:57.801Z,117.73
2019-02-18T04:08:28.294Z,115.70
2019-02-18T04:10:58.782Z,117.17
2019-02-18T04:13:29.392Z,114.90
2019-02-18T04:15:59.898Z,116.53
2019-02-18T04:18:30.369Z,115.50
2019-02-18T04:21:01.670Z,114.20
2019-02-18T04:23:32.174Z,109.90
2019-02-18T04:26:04.283Z,113.90
2019-02-18T04:28:34.801Z,114.93
2019-02-18T04:31:05.422Z,114.77
2019-02-18T04:33:35.856Z,113.47
2019-02-18T04:36:06.258Z,117.00
2019-02-18T04:38:36.683Z,115.87
2019-02-18T04:41:07.165Z,115.70
2019-02-18T04:43:37.589Z,113.47
2019-02-18T04:46:08.035Z,115.93
2019-02-18T04:48:38.421Z,115.83
2019-02-18T04:51:08.802Z,118.10
2019-02-18T04:53:39.460Z,115.10
2019-02-18T04:56:09.964Z,116.30
2019-02-18T04:58:40.487Z,115.50
2019-02-18T05:01:10.970Z,114.23
2019-02-18T05:03:41.436Z,113.07
2019-02-18T05:06:11.916Z,113.97
2019-02-18T05:08:42.502Z,116.30
2019-02-18T05:11:13.942Z,114.80
2019-02-18T05:13:45.995Z,115.87
2019-02-18T05:16:16.515Z,114.10
2019-02-18T05:18:48.655Z,115.70
2019-02-18T05:21:19.109Z,114.20
2019-02-18T05:23:49.566Z,116.50
2019-02-18T05:26:19.993Z,115.60
2019-02-18T05:28:50.370Z,114.37
2019-02-18T05:31:20.748Z,116.00
2019-02-18T05:33:51.236Z,112.03
2019-02-18T05:36:21.678Z,113.97
2019-02-18T05:38:52.217Z,113.67
2019-02-18T05:41:22.892Z,111.37
2019-02-18T05:43:53.333Z,112.13
2019-02-18T05:46:23.840Z,112.37
2019-02-18T05:48:54.359Z,113.00
2019-02-18T05:51:24.901Z,116.37
2019-02-18T05:53:55.353Z,114.67
2019-02-18T05:56:25.897Z,114.77
2019-02-18T05:58:56.523Z,117.43
2019-02-18T06:01:27.252Z,115.60
2019-02-18T06:04:00.102Z,115.80
2019-02-18T06:06:29.893Z,113.80
2019-02-18T06:09:00.405Z,112.70
2019-02-18T06:11:31.064Z,110.07
2019-02-18T06:14:01.557Z,111.53
2019-02-18T06:16:32.253Z,110.53
2019-02-18T06:19:02.735Z,113.20
2019-02-18T06:21:33.125Z,113.97
2019-02-18T06:24:03.986Z,112.50
2019-02-18T06:26:34.538Z,114.23
2019-02-18T06:29:05.046Z,111.40
2019-02-18T06:31:35.574Z,114.23
2019-02-18T06:34:06.033Z,110.90
2019-02-18T06:36:36.531Z,113.90
2019-02-18T06:39:07.501Z,112.60
2019-02-18T06:41:38.007Z,114.07
2019-02-18T06:44:08.712Z,113.67
2019-02-18T06:46:42.120Z,111.97
2019-02-18T06:49:16.500Z,112.60
2019-02-18T06:51:48.091Z,115.00
2019-02-18T06:54:20.309Z,110.90
2019-02-18T06:56:59.611Z,111.67
2019-02-18T06:59:39.489Z,111.87
2019-02-18T07:02:23.320Z,113.33
2019-02-18T07:05:15.675Z,110.10
2019-02-18T07:07:52.613Z,110.97
2019-02-18T07:10:30.207Z,113.93
2019-02-18T07:13:00.820Z,112.47
2019-02-18T07:15:31.325Z,109.50
2019-02-18T07:18:02.248Z,110.27
2019-02-18T07:20:32.928Z,111.30
2019-02-18T07:23:03.381Z,111.50
2019-02-18T07:25:33.837Z,111.87
2019-02-18T07:28:04.368Z,109.97
2019-02-18T07:30:34.945Z,112.33
2019-02-18T07:33:05.469Z,110.83
2019-02-18T07:35:35.905Z,109.57
2019-02-18T07:38:07.844Z,110.63
2019-02-18T07:40:38.273Z,108.60
2019-02-18T07:43:09.109Z,108.60
2019-02-18T07:45:39.656Z,111.47
2019-02-18T07:48:10.365Z,112.27
2019-02-18T07:50:40.887Z,113.63
2019-02-18T07:53:11.468Z,111.00
2019-02-18T07:55:42.067Z,113.13
2019-02-18T07:58:12.574Z,112.63
2019-02-18T08:00:43.485Z,113.03
2019-02-18T08:03:13.949Z,112.80
2019-02-18T08:05:45.657Z,115.37
2019-02-18T08:08:16.181Z,113.83
2019-02-18T08:10:46.663Z,114.27
2019-02-18T08:13:17.359Z,116.13
2019-02-18T08:15:47.781Z,117.63
2019-02-18T08:18:18.264Z,115.80
2019-02-18T08:20:48.863Z,117.43
2019-02-18T08:23:19.505Z,118.27
2019-02-18T08:25:50.333Z,118.73
2019-02-18T08:28:20.761Z,117.67
2019-02-18T08:30:51.279Z,114.93
2019-02-18T08:33:22.811Z,115.03
2019-02-18T08:35:53.361Z,112.67
2019-02-18T08:38:24.107Z,117.67
2019-02-18T08:40:54.652Z,114.93
2019-02-18T08:43:25.172Z,115.27
2019-02-18T08:45:55.636Z,118.07
2019-02-18T08:48:26.106Z,117.27
2019-02-18T08:50:56.601Z,116.20
2019-02-18T08:53:27.298Z,117.87
2019-02-18T08:55:57.781Z,116.77
2019-02-18T08:58:28.360Z,119.70
2019-02-18T09:01:02.542Z,119.00
2019-02-18T09:03:31.049Z,118.37
2019-02-18T09:06:01.540Z,117.73
2019-02-18T09:08:32.029Z,120.53
2019-02-18T09:11:02.538Z,120.27
2019-02-18T09:13:33.088Z,119.47
2019-02-18T09:16:03.621Z,119.80
2019-02-18T09:18:34.024Z,120.33
2019-02-18T09:21:04.404Z,119.27
2019-02-18T09:24:09.168Z,120.00
2019-02-18T09:26:39.649Z,119.23
2019-02-18T09:29:10.135Z,119.50
2019-02-18T09:31:43.002Z,116.50
2019-02-18T09:34:13.702Z,120.77
2019-02-18T09:36:44.232Z,117.93
2019-02-18T09:39:30.043Z,117.50
2019-02-18T09:41:51.681Z,118.20
2019-02-18T09:44:22.202Z,117.07
2019-02-18T09:46:53.668Z,117.23
2019-02-18T09:49:24.109Z,116.83
2019-02-18T09:51:54.557Z,113.67
2019-02-18T09:54:25.068Z,118.17
2019-02-18T09:56:55.478Z,118.40
2019-02-18T09:59:26.079Z,120.13
2019-02-18T10:01:56.645Z,118.57
2019-02-18T10:04:27.215Z,118.57
2019-02-18T10:06:57.670Z,122.03
2019-02-18T10:09:28.161Z,117.33
2019-02-18T10:11:58.608Z,121.17
2019-02-18T10:14:29.300Z,119.50
2019-02-18T10:16:59.750Z,117.70
2019-02-18T10:19:30.240Z,116.13
2019-02-18T10:22:00.787Z,115.80
2019-02-18T10:24:31.357Z,119.73
2019-02-18T10:27:01.941Z,120.57
2019-02-18T10:29:32.556Z,120.77
2019-02-18T10:32:03.108Z,118.30
2019-02-18T10:34:33.748Z,123.00
2019-02-18T10:37:04.203Z,119.03
2019-02-18T10:39:34.696Z,123.57
2019-02-18T10:42:05.268Z,122.23
2019-02-18T10:44:35.725Z,118.50
2019-02-18T10:47:06.220Z,120.33
2019-02-18T10:49:36.936Z,121.70
2019-02-18T10:52:07.506Z,116.57
2019-02-18T10:54:38.149Z,120.37
2019-02-18T10:57:08.668Z,117.60
2019-02-18T10:59:39.193Z,121.10
2019-02-18T11:02:09.848Z,120.60
2019-02-18T11:04:40.330Z,119.63
2019-02-18T11:07:11.210Z,119.73
2019-02-18T11:09:42.108Z,120.73
2019-02-18T11:12:16.278Z,121.67
2019-02-18T11:14:47.245Z,121.00
2019-02-18T11:17:18.139Z,123.17
2019-02-18T11:19:48.805Z,121.47
2019-02-18T11:22:20.519Z,119.10
2019-02-18T11:24:51.292Z,118.10
2019-02-18T11:27:21.754Z,117.40
2019-02-18T11:29:52.374Z,119.70
2019-02-18T11:32:22.986Z,117.80
2019-02-18T11:34:53.757Z,119.37
2019-02-18T11:37:24.286Z,118.03
2019-02-18T11:39:54.816Z,117.97
2019-02-18T11:42:25.569Z,116.10
2019-02-18T11:44:56.114Z,117.43
2019-02-18T11:47:26.952Z,117.63
2019-02-18T11:49:57.452Z,116.60
2019-02-18T11:52:27.994Z,113.53
2019-02-18T11:54:58.464Z,114.43
2019-02-18T11:57:31.023Z,115.97
2019-02-18T12:00:01.072Z,115.23
2019-02-18T12:02:33.204Z,115.00
2019-02-18T12:05:05.595Z,117.10
2019-02-18T12:07:36.154Z,119.73
2019-02-18T12:10:07.424Z,118.07
2019-02-18T12:12:39.004Z,119.23
2019-02-18T12:15:10.659Z,117.17
2019-02-18T12:17:42.444Z,119.37
2019-02-18T12:20:14.487Z,119.30
2019-02-18T12:22:46.672Z,117.07
2019-02-18T12:25:17.155Z,118.30
2019-02-18T12:27:47.761Z,114.97
2019-02-18T12:30:18.222Z,120.30
2019-02-18T12:32:48.933Z,117.07
2019-02-18T12:35:19.426Z,120.57
2019-02-18T12:37:55.262Z,116.80
2019-02-18T12:40:22.045Z,118.10
2019-02-18T12:42:52.573Z,117.23
2019-02-18T12:45:23.146Z,116.37
2019-02-18T12:47:55.610Z,118.70
2019-02-18T12:50:26.118Z,120.83
2019-02-18T12:52:57.577Z,121.07
2019-02-18T12:55:28.132Z,120.57
2019-02-18T12:57:58.842Z,121.43
2019-02-18T13:00:29.587Z,122.57
2019-02-18T13:03:00.474Z,124.43
2019-02-18T13:05:32.315Z,122.80
2019-02-18T13:08:04.941Z,123.63
2019-02-18T13:10:35.772Z,122.67
2019-02-18T13:13:06.776Z,121.27
2019-02-18T13:15:37.351Z,122.03
2019-02-18T13:18:07.920Z,122.53
2019-02-18T13:20:38.475Z,121.10
2019-02-18T13:23:09.601Z,119.97
2019-02-18T13:25:47.336Z,122.03
2019-02-18T13:28:13.548Z,126.03
2019-02-18T13:30:44.944Z,124.50
2019-02-18T13:33:15.577Z,125.37
2019-02-18T13:35:46.364Z,123.43
2019-02-18T13:38:16.842Z,124.30
2019-02-18T13:40:47.342Z,124.20
2019-02-18T13:43:19.029Z,122.80
2019-02-18T13:45:50.613Z,122.43
2019-02-18T13:48:21.064Z,120.53
2019-02-18T13:50:51.731Z,122.43
2019-02-18T13:53:22.192Z,120.70
2019-02-18T13:55:52.824Z,124.27
2019-02-18T13:58:23.462Z,123.03
2019-02-18T14:00:53.996Z,121.70
2019-02-18T14:03:24.924Z,122.23
2019-02-18T14:05:55.393Z,122.83
2019-02-18T14:08:25.934Z,122.47
2019-02-18T14:10:56.465Z,122.50
2019-02-18T14:13:27.174Z,121.20
2019-02-18T14:15:57.649Z,119.53
2019-02-18T14:18:28.132Z,120.17
2019-02-18T14:20:58.797Z,120.00
2019-02-18T14:23:29.407Z,120.57
2019-02-18T14:25:59.853Z,118.53
2019-02-18T14:28:30.344Z,119.27
2019-02-18T14:31:01.267Z,118.20
2019-02-18T14:33:31.781Z,117.90
2019-02-18T14:36:02.281Z,118.23
2019-02-18T14:38:32.854Z,118.30
2019-02-18T14:41:03.508Z,118.70
2019-02-18T14:43:34.108Z,117.67
2019-02-18T14:46:04.967Z,115.67
2019-02-18T14:48:35.565Z,117.23
2019-02-18T14:51:06.357Z,115.67
2019-02-18T14:53:37.041Z,115.03
2019-02-18T14:56:09.993Z,114.00
2019-02-18T14:58:40.485Z,114.93
2019-02-18T15:01:11.801Z,117.10
2019-02-18T15:03:42.345Z,116.37
2019-02-18T15:06:12.916Z,116.17
2019-02-18T15:08:43.420Z,117.30
2019-02-18T15:11:14.201Z,118.53
2019-02-18T15:13:44.865Z,115.33
2019-02-18T15:16:15.336Z,114.23
2019-02-18T15:18:46.130Z,114.53
2019-02-18T15:21:16.638Z,116.03
2019-02-18T15:23:47.495Z,115.60
2019-02-18T15:26:18.362Z,115.90
2019-02-18T15:28:48.829Z,114.53
2019-02-18T15:31:19.364Z,115.27
2019-02-18T15:33:50.200Z,115.83
2019-02-18T15:36:20.714Z,116.17
2019-02-18T15:38:51.285Z,116.43
2019-02-18T15:41:21.906Z,116.93
2019-02-18T15:43:52.633Z,117.87
2019-02-18T15:46:23.221Z,120.20
2019-02-18T15:48:53.755Z,118.37
2019-02-18T15:51:24.566Z,118.47
2019-02-18T15:53:55.189Z,121.47
2019-02-18T15:56:26.013Z,116.43
2019-02-18T15:58:56.491Z,118.80
2019-02-18T16:01:27.360Z,120.00
2019-02-18T16:03:58.378Z,119.13
2019-02-18T16:06:28.826Z,121.07
2019-02-18T16:08:59.304Z,119.13
2019-02-18T16:11:29.854Z,120.90
2019-02-18T16:14:00.449Z,122.80
2019-02-18T16:16:32.677Z,120.43
2019-02-18T16:19:03.161Z,120.87
2019-02-18T16:21:34.710Z,119.50
2019-02-18T16:24:05.231Z,118.07
2019-02-18T16:26:35.845Z,121.70
2019-02-18T16:29:06.509Z,121.13
2019-02-18T16:31:37.314Z,118.50
2019-02-18T16:34:09.307Z,117.47
2019-02-18T16:36:39.824Z,116.47
2019-02-18T16:39:10.844Z,116.60
2019-02-18T16:41:41.840Z,117.40
2019-02-18T16:44:12.361Z,117.70
2019-02-18T16:46:42.834Z,119.63
2019-02-18T16:49:13.739Z,113.97
2019-02-18T16:51:44.226Z,118.27
2019-02-18T16:54:14.788Z,115.47
2019-02-18T16:56:45.826Z,114.77
2019-02-18T16:59:16.538Z,118.87
2019-02-18T17:01:47.346Z,114.63
2019-02-18T17:04:18.206Z,117.83
2019-02-18T17:06:49.173Z,117.67
2019-02-18T17:09:21.025Z,117.27
2019-02-18T17:11:52.035Z,116.37
2019-02-18T17:14:22.748Z,115.43
2019-02-18T17:16:53.424Z,113.77
2019-02-18T17:19:24.010Z,117.27
2019-02-18T17:21:54.720Z,115.90
2019-02-18T17:24:25.296Z,116.60
2019-02-18T17:26:55.916Z,116.97
2019-02-18T17:29:26.602Z,115.77
2019-02-18T17:31:57.120Z,116.00
2019-02-18T17:34:30.176Z,117.80
2019-02-18T17:37:01.186Z,116.30
2019-02-18T17:39:32.809Z,115.47
2019-02-18T17:42:03.686Z,115.90
2019-02-18T17:44:34.187Z,118.43
2019-02-18T17:47:04.834Z,116.30
2019-02-18T17:49:35.650Z,113.40
2019-02-18T17:52:06.294Z,117.13
2019-02-18T17:54:36.894Z,117.93
2019-02-18T17:57:07.642Z,115.23
2019-02-18T17:59:38.540Z,114.30
2019-02-18T18:02:09.092Z,118.10
2019-02-18T18:04:39.572Z,114.53
2019-02-18T18:07:10.104Z,114.13
2019-02-18T18:09:40.843Z,113.73
2019-02-18T18:12:11.445Z,112.63
2019-02-18T18:14:42.073Z,113.30
2019-02-18T18:17:13.263Z,115.57
2019-02-18T18:19:43.995Z,111.80
2019-02-18T18:22:14.588Z,112.83
2019-02-18T18:24:45.736Z,115.43
2019-02-18T18:27:16.296Z,116.67
2019-02-18T18:29:47.140Z,115.13
2019-02-18T18:32:17.795Z,115.03
2019-02-18T18:34:48.437Z,113.80
2019-02-18T18:37:19.060Z,113.90
2019-02-18T18:39:49.563Z,113.27
2019-02-18T18:42:20.148Z,112.80
2019-02-18T18:44:50.973Z,111.80
2019-02-18T18:47:21.583Z,110.77
2019-02-18T18:49:52.095Z,110.53
2019-02-18T18:52:22.695Z,112.67
2019-02-18T18:54:53.280Z,113.83
2019-02-18T18:57:24.233Z,112.10
2019-02-18T18:59:55.019Z,112.77
2019-02-18T19:02:26.805Z,110.97
2019-02-18T19:04:57.458Z,111.93
2019-02-18T19:07:28.013Z,110.90
2019-02-18T19:09:59.067Z,109.67
2019-02-18T19:12:29.603Z,107.93
2019-02-18T19:15:00.231Z,108.40
2019-02-18T19:17:33.168Z,106.97
2019-02-18T19:20:11.660Z,106.67
2019-02-18T19:22:42.428Z,105.97
2019-02-18T19:27:54.129Z,106.27
2019-02-18T19:30:26.386Z,109.63
2019-02-18T19:32:57.157Z,106.73
2019-02-18T19:35:30.600Z,104.33
2019-02-18T19:38:01.529Z,104.97
2019-02-18T19:40:32.203Z,106.57
2019-02-18T19:43:02.839Z,103.83
2019-02-18T19:45:33.718Z,105.40
2019-02-18T19:48:04.583Z,104.50
2019-02-18T19:50:35.384Z,107.37
2019-02-18T19:53:05.996Z,105.93
2019-02-18T19:55:36.748Z,104.67
2019-02-18T19:58:07.321Z,105.53
2019-02-18T20:00:38.098Z,105.00
2019-02-18T20:03:08.761Z,104.63
2019-02-18T20:05:39.407Z,105.53
2019-02-18T20:08:11.399Z,106.10
2019-02-18T20:10:42.009Z,106.40
2019-02-18T20:13:37.106Z,104.23
2019-02-18T20:16:20.718Z,103.57
2019-02-18T20:18:57.160Z,107.73
2019-02-18T20:21:29.173Z,106.33
2019-02-18T20:23:59.793Z,106.57
2019-02-18T20:26:30.415Z,108.03
2019-02-18T20:29:00.919Z,106.70
2019-02-18T20:31:32.694Z,107.40
2019-02-18T20:34:03.400Z,106.03
2019-02-18T20:36:36.088Z,107.27
2019-02-18T20:39:08.727Z,107.73
2019-02-18T20:41:39.814Z,107.80
2019-02-18T20:44:10.406Z,108.60
2019-02-18T20:46:41.057Z,108.00
2019-02-18T20:49:11.554Z,106.13
2019-02-18T20:51:42.305Z,108.43
2019-02-18T20:54:14.108Z,108.20
2019-02-18T20:56:44.831Z,107.13
2019-02-18T20:59:15.428Z,109.83
2019-02-18T21:01:45.926Z,109.10
2019-02-18T21:04:16.661Z,111.77
2019-02-18T21:06:47.689Z,111.50
2019-02-18T21:09:18.283Z,111.27
2019-02-18T21:11:48.887Z,110.20
2019-02-18T21:14:19.380Z,111.73
2019-02-18T21:16:49.960Z,110.20
2019-02-18T21:19:20.721Z,111.00
2019-02-18T21:21:51.179Z,110.13
2019-02-18T21:24:21.789Z,110.70
2019-02-18T21:26:52.369Z,110.77
2019-02-18T21:29:22.951Z,110.17
2019-02-18T21:31:53.437Z,111.77
2019-02-18T21:34:24.098Z,110.53
2019-02-18T21:36:54.841Z,108.53
2019-02-18T21:39:25.379Z,111.63
2019-02-18T21:41:55.956Z,112.03
2019-02-18T21:44:26.434Z,109.57
2019-02-18T21:47:01.144Z,111.33
2019-02-18T21:49:31.712Z,110.37
2019-02-18T21:52:02.253Z,111.67
2019-02-18T21:54:35.662Z,111.10
2019-02-18T21:57:07.289Z,110.47
2019-02-18T21:59:42.622Z,110.77
2019-02-18T22:02:23.380Z,110.77
2019-02-18T22:04:55.445Z,112.70
2019-02-18T22:07:55.549Z,110.90
2019-02-18T22:10:26.776Z,112.37
2019-02-18T22:13:00.274Z,113.40
2019-02-18T22:15:32.265Z,113.40
2019-02-18T22:18:03.062Z,111.50
2019-02-18T22:20:33.951Z,112.97
2019-02-18T22:23:04.648Z,112.97
2019-02-18T22:25:35.279Z,113.30
2019-02-18T22:28:05.727Z,113.47
2019-02-18T22:30:36.434Z,116.63
2019-02-18T22:33:28.341Z,114.90
2019-02-18T22:35:59.091Z,114.97
2019-02-18T22:38:29.573Z,113.87
2019-02-18T22:41:01.037Z,116.47
2019-02-18T22:43:31.600Z,116.07
2019-02-18T22:46:04.632Z,120.43
2019-02-18T22:48:35.353Z,120.73
2019-02-18T22:51:06.310Z,122.83
2019-02-18T22:53:36.791Z,119.80
2019-02-18T22:56:07.548Z,119.40
2019-02-18T22:58:38.665Z,116.30
2019-02-18T23:01:09.904Z,118.13
2019-02-18T23:03:41.192Z,119.90
2019-02-18T23:06:13.943Z,121.43
2019-02-18T23:08:44.368Z,122.20
2019-02-18T23:11:14.932Z,120.80
2019-02-18T23:13:45.759Z,120.07
2019-02-18T23:16:16.263Z,119.77
2019-02-18T23:18:46.750Z,117.53
2019-02-18T23:21:17.329Z,117.70
2019-02-18T23:23:47.812Z,120.63
2019-02-18T23:26:18.459Z,119.23
2019-02-18T23:28:49.037Z,117.23
2019-02-18T23:31:23.576Z,119.77
2019-02-18T23:33:58.462Z,120.40
2019-02-18T23:36:29.052Z,117.63
2019-02-18T23:38:59.689Z,116.87
2019-02-18T23:41:30.104Z,116.33
2019-02-18T23:44:00.604Z,117.77
2019-02-18T23:46:31.081Z,114.93
2019-02-18T23:49:01.592Z,114.17
2019-02-18T23:51:32.084Z,117.03
2019-02-18T23:54:02.579Z,116.17
2019-02-18T23:56:33.117Z,117.87
2019-02-18T23:59:03.688Z,114.90
